createdAt,value
2022-09-04T08:01:42.787Z,430.00
2022-09-04T08:02:42.538Z,432.00
2022-09-04T08:03:54.068Z,429.00
2022-09-04T08:04:43.298Z,429.00
2022-09-04T08:05:42.313Z,427.00
2022-09-04T08:06:42.283Z,427.00
2022-09-04T08:07:42.255Z,426.00
2022-09-04T08:08:42.226Z,427.00
2022-09-04T08:09:42.303Z,428.00
2022-09-04T08:10:42.671Z,428.00
2022-09-04T08:11:42.263Z,427.00
2022-09-04T08:12:42.175Z,429.00
2022-09-04T08:13:42.163Z,429.00
2022-09-04T08:14:42.312Z,427.00
2022-09-04T09:23:29.026Z,424.00
2022-09-04T09:24:30.060Z,423.00
2022-09-04T09:25:28.985Z,426.00
2022-09-04T09:26:28.854Z,428.00
2022-09-04T09:27:28.869Z,431.00
2022-09-04T09:28:28.824Z,430.00
2022-09-04T09:29:28.805Z,428.00
2022-09-04T09:30:28.830Z,427.00
2022-09-04T09:31:28.778Z,429.00
2022-09-04T09:32:28.788Z,428.00
2022-09-04T09:33:28.774Z,427.00
2022-09-04T09:34:28.784Z,428.00
2022-09-04T09:35:28.733Z,430.00
2022-09-04T09:36:28.713Z,426.00
2022-09-04T09:37:28.694Z,429.00
2022-09-04T09:38:28.701Z,429.00
2022-09-04T09:39:28.735Z,432.00
2022-09-04T09:40:28.686Z,434.00
2022-09-04T09:41:28.677Z,435.00
2022-09-04T09:42:28.630Z,436.00
2022-09-04T09:43:28.674Z,436.00
2022-09-04T09:44:28.603Z,434.00
2022-09-04T09:45:28.643Z,433.00
2022-09-04T09:46:28.662Z,434.00
2022-09-04T09:47:28.564Z,434.00
2022-09-04T09:48:28.571Z,433.00
2022-09-04T09:49:28.573Z,431.00
2022-09-04T09:50:28.523Z,431.00
2022-09-04T09:51:28.510Z,430.00
2022-09-04T09:52:29.352Z,431.00
2022-09-04T09:53:28.491Z,432.00
2022-09-04T09:54:28.492Z,431.00
2022-09-04T09:55:28.479Z,430.00
2022-09-04T09:56:28.457Z,431.00
2022-09-04T09:57:33.348Z,431.00
2022-09-04T09:58:29.428Z,432.00
2022-09-04T09:59:28.415Z,430.00
2022-09-04T10:00:28.394Z,430.00
2022-09-04T10:01:28.483Z,431.00
2022-09-04T10:02:28.425Z,431.00
2022-09-04T10:03:28.369Z,430.00
2022-09-04T10:04:28.359Z,427.00
2022-09-04T11:35:49.898Z,424.00
2022-09-04T11:36:49.814Z,424.00
2022-09-04T11:37:51.902Z,425.00
2022-09-04T11:38:50.938Z,425.00
2022-09-04T11:39:49.771Z,424.00
2022-09-04T11:40:49.702Z,424.00
2022-09-04T11:41:49.720Z,424.00
2022-09-04T11:42:49.676Z,425.00
2022-09-04T11:43:51.264Z,424.00
2022-09-04T11:44:49.863Z,427.00
2022-09-04T11:45:49.682Z,427.00
2022-09-04T11:46:49.625Z,428.00
2022-09-04T11:47:49.605Z,429.00
2022-09-04T11:49:06.851Z,430.00
2022-09-04T11:49:51.091Z,431.00
2022-09-04T11:50:49.563Z,433.00
2022-09-04T11:51:49.532Z,434.00
2022-09-04T11:52:50.768Z,432.00
2022-09-04T11:53:50.400Z,431.00
2022-09-04T11:54:52.452Z,432.00
2022-09-04T11:55:52.626Z,430.00
2022-09-04T11:56:49.509Z,427.00
2022-09-04T11:57:49.459Z,428.00
2022-09-04T11:58:49.665Z,428.00
2022-09-04T11:59:49.459Z,429.00
2022-09-04T12:00:49.418Z,428.00
2022-09-04T12:01:49.468Z,429.00
2022-09-04T12:02:49.398Z,431.00
2022-09-04T12:03:49.405Z,433.00
2022-09-04T12:04:49.368Z,432.00
2022-09-04T12:05:49.358Z,431.00
2022-09-04T12:06:49.346Z,434.00
2022-09-04T12:07:49.396Z,434.00
2022-09-04T12:08:50.413Z,434.00
2022-09-04T12:09:49.303Z,434.00
2022-09-04T12:10:49.286Z,433.00
2022-09-04T12:11:49.287Z,437.00
2022-09-04T12:12:49.265Z,435.00
2022-09-04T12:13:49.237Z,435.00
2022-09-04T12:14:49.238Z,438.00
2022-09-04T12:15:49.216Z,438.00
2022-09-04T12:16:49.240Z,436.00
2022-09-04T12:17:49.186Z,435.00
2022-09-04T12:18:49.171Z,433.00
2022-09-04T12:19:49.207Z,433.00
2022-09-04T12:20:49.178Z,430.00
2022-09-04T12:21:49.172Z,432.00
2022-09-04T12:22:49.136Z,433.00
2022-09-04T12:23:49.135Z,429.00
2022-09-04T12:24:49.117Z,428.00
2022-09-04T12:25:49.088Z,429.00
2022-09-04T12:26:51.942Z,430.00
2022-09-04T12:27:49.074Z,431.00
2022-09-04T12:28:49.037Z,432.00
2022-09-04T12:29:49.053Z,430.00
2022-09-04T12:30:49.016Z,433.00
2022-09-04T12:31:51.560Z,431.00
2022-09-04T12:32:49.006Z,431.00
2022-09-04T12:33:48.976Z,432.00
2022-09-04T12:34:49.029Z,434.00
2022-09-04T12:35:48.978Z,432.00
2022-09-04T12:36:48.994Z,434.00
2022-09-04T12:37:48.954Z,434.00
2022-09-04T12:38:48.934Z,434.00
2022-09-04T12:39:49.011Z,432.00
2022-09-04T12:40:48.915Z,431.00
2022-09-04T12:41:50.031Z,434.00
2022-09-04T12:42:48.894Z,435.00
2022-09-04T12:43:48.886Z,438.00
2022-09-04T12:44:48.857Z,438.00
2022-09-04T12:45:48.906Z,438.00
2022-09-04T12:46:48.823Z,435.00
2022-09-04T12:47:48.830Z,436.00
2022-09-04T12:48:48.832Z,430.00
2022-09-04T12:49:48.784Z,432.00
2022-09-04T12:50:48.784Z,436.00
2022-09-04T12:51:48.777Z,440.00
2022-09-04T12:52:48.752Z,439.00
2022-09-04T12:53:52.575Z,438.00
2022-09-04T12:54:48.743Z,440.00
2022-09-04T12:55:48.714Z,439.00
2022-09-04T12:56:49.237Z,443.00
2022-09-04T12:57:48.770Z,410.00
2022-09-04T12:58:48.691Z,450.00
2022-09-04T12:59:48.699Z,445.00
2022-09-04T13:00:49.837Z,439.00
2022-09-04T13:01:48.725Z,437.00
2022-09-04T13:02:48.634Z,439.00
2022-09-04T13:03:48.600Z,442.00
2022-09-04T13:04:48.654Z,440.00
2022-09-04T13:05:52.913Z,439.00
2022-09-04T13:06:53.371Z,439.00
2022-09-04T13:07:48.574Z,443.00
2022-09-04T13:08:48.541Z,442.00
2022-09-04T13:09:53.287Z,443.00
2022-09-04T13:10:49.509Z,442.00
2022-09-04T13:11:48.480Z,443.00
2022-09-04T13:12:48.474Z,444.00
2022-09-04T13:13:48.452Z,444.00
2022-09-04T13:14:48.425Z,445.00
2022-09-04T13:15:48.401Z,447.00
2022-09-04T13:16:51.162Z,445.00
2022-09-04T13:17:49.411Z,445.00
2022-09-04T13:18:48.371Z,444.00
2022-09-04T13:19:48.352Z,441.00
2022-09-04T13:20:48.341Z,441.00
2022-09-04T13:21:48.330Z,442.00
2022-09-04T13:22:48.318Z,442.00
2022-09-04T13:23:48.322Z,440.00
2022-09-04T13:24:48.329Z,442.00
2022-09-04T13:25:48.317Z,445.00
2022-09-04T13:26:48.301Z,445.00
2022-09-04T13:27:48.274Z,443.00
2022-09-04T13:28:48.268Z,444.00
2022-09-04T13:29:48.281Z,442.00
2022-09-04T13:30:48.229Z,441.00
2022-09-04T13:31:48.309Z,443.00
2022-09-04T13:32:48.238Z,438.00
2022-09-04T13:33:49.265Z,438.00
2022-09-04T13:34:48.208Z,438.00
2022-09-04T13:35:48.165Z,437.00
2022-09-04T13:36:48.129Z,437.00
2022-09-04T13:37:48.121Z,438.00
2022-09-04T13:38:48.090Z,435.00
2022-09-04T13:39:48.134Z,434.00
2022-09-04T13:40:48.099Z,435.00
2022-09-04T13:41:48.079Z,440.00
2022-09-04T13:42:52.107Z,439.00
2022-09-04T13:43:48.027Z,440.00
2022-09-04T13:44:48.018Z,443.00
2022-09-04T13:45:47.996Z,445.00
2022-09-04T13:46:48.069Z,444.00
2022-09-04T13:47:47.987Z,443.00
2022-09-04T13:48:47.958Z,441.00
2022-09-04T13:49:47.966Z,439.00
2022-09-04T13:50:47.927Z,439.00
2022-09-04T13:51:47.938Z,440.00
2022-09-04T13:52:47.911Z,438.00
2022-09-04T13:53:47.936Z,439.00
2022-09-04T13:54:47.919Z,439.00
2022-09-04T13:55:50.033Z,436.00
2022-09-04T13:56:47.853Z,437.00
2022-09-04T13:57:47.844Z,437.00
2022-09-04T13:58:47.835Z,435.00
2022-09-04T13:59:47.878Z,434.00
2022-09-04T14:00:47.817Z,432.00
2022-09-04T14:01:47.786Z,433.00
2022-09-04T14:02:47.794Z,434.00
2022-09-04T14:03:47.830Z,433.00
2022-09-04T14:04:49.545Z,432.00
2022-09-04T14:05:47.767Z,433.00
2022-09-04T14:06:47.729Z,433.00
2022-09-04T14:07:47.709Z,433.00
2022-09-04T14:08:59.620Z,433.00
2022-09-04T14:09:48.685Z,432.00
2022-09-04T14:10:47.702Z,432.00
2022-09-04T14:11:47.660Z,429.00
2022-09-04T14:12:53.681Z,429.00
2022-09-04T14:13:48.635Z,426.00
2022-09-04T14:14:47.649Z,425.00
2022-09-04T14:15:47.703Z,427.00
2022-09-04T14:16:47.613Z,428.00
2022-09-04T14:17:47.595Z,428.00
2022-09-04T14:18:47.604Z,430.00
2022-09-04T14:19:47.609Z,431.00
2022-09-04T14:20:47.564Z,430.00
2022-09-04T14:21:47.584Z,429.00
2022-09-04T14:22:47.542Z,428.00
2022-09-04T14:23:47.503Z,429.00
2022-09-04T14:24:47.503Z,428.00
2022-09-04T14:25:47.493Z,426.00
2022-09-04T14:26:47.462Z,425.00
2022-09-04T14:27:47.463Z,425.00
2022-09-04T14:28:47.444Z,427.00
2022-09-04T14:29:47.435Z,426.00
2022-09-04T14:30:47.422Z,426.00
2022-09-04T14:31:49.153Z,425.00
2022-09-04T14:32:47.411Z,425.00
2022-09-04T14:33:47.425Z,424.00
2022-09-04T14:34:47.588Z,423.00
2022-09-04T14:35:47.384Z,422.00
2022-09-04T14:36:47.342Z,421.00
2022-09-04T14:37:47.335Z,423.00
2022-09-04T14:38:48.321Z,422.00
2022-09-04T14:39:47.841Z,422.00
2022-09-04T14:40:47.312Z,422.00
2022-09-04T14:41:47.265Z,424.00
2022-09-04T14:42:47.262Z,423.00
2022-09-04T14:43:47.263Z,426.00
2022-09-04T14:44:47.232Z,427.00
2022-09-04T14:45:47.220Z,429.00
2022-09-04T14:46:50.888Z,430.00
2022-09-04T14:47:47.304Z,429.00
2022-09-04T14:48:47.185Z,430.00
2022-09-04T14:49:47.701Z,430.00
2022-09-04T14:50:47.580Z,428.00
2022-09-04T14:51:47.265Z,426.00
2022-09-04T14:52:47.923Z,427.00
2022-09-04T14:53:48.068Z,431.00
2022-09-04T14:54:47.144Z,432.00
2022-09-04T14:55:47.145Z,431.00
2022-09-04T14:56:47.089Z,428.00
2022-09-04T14:57:47.104Z,427.00
2022-09-04T14:58:50.563Z,427.00
2022-09-04T14:59:47.830Z,427.00
2022-09-04T15:00:47.021Z,427.00
2022-09-04T15:01:47.097Z,424.00
2022-09-04T15:02:47.019Z,425.00
2022-09-04T15:03:47.043Z,424.00
2022-09-04T15:04:46.953Z,426.00
2022-09-04T15:05:46.937Z,426.00
2022-09-04T15:07:07.982Z,426.00
2022-09-04T15:07:47.908Z,427.00
2022-09-04T15:08:46.911Z,428.00
2022-09-04T15:09:46.878Z,429.00
2022-09-04T15:10:46.917Z,429.00
2022-09-04T15:11:46.870Z,430.00
2022-09-04T15:12:46.878Z,429.00
2022-09-04T15:13:46.882Z,428.00
2022-09-04T15:14:46.890Z,428.00
2022-09-04T15:15:46.865Z,428.00
2022-09-04T15:16:46.800Z,429.00
2022-09-04T15:17:47.421Z,429.00
2022-09-04T15:18:46.801Z,427.00
2022-09-04T15:19:46.754Z,427.00
2022-09-04T15:20:46.755Z,424.00
2022-09-04T15:21:46.747Z,425.00
2022-09-04T15:22:46.828Z,425.00
2022-09-04T15:23:46.687Z,425.00
2022-09-04T15:24:46.707Z,426.00
2022-09-04T15:26:01.975Z,424.00
2022-09-04T15:26:47.689Z,424.00
2022-09-04T15:27:46.666Z,424.00
2022-09-04T15:28:46.877Z,424.00
2022-09-04T15:29:46.628Z,420.00
2022-09-04T15:30:48.212Z,419.00
2022-09-04T15:31:46.705Z,418.00
2022-09-04T15:32:46.596Z,417.00
2022-09-04T15:33:46.581Z,420.00
2022-09-04T15:34:46.565Z,422.00
2022-09-04T15:35:46.554Z,423.00
2022-09-04T15:36:46.576Z,423.00
2022-09-04T15:37:48.388Z,424.00
2022-09-04T15:38:46.518Z,424.00
2022-09-04T15:39:46.542Z,422.00
2022-09-04T15:41:05.856Z,423.00
2022-09-04T15:41:47.474Z,424.00
2022-09-04T15:42:46.475Z,425.00
2022-09-04T15:43:46.487Z,425.00
2022-09-04T15:44:46.466Z,427.00
2022-09-04T15:45:46.415Z,427.00
2022-09-04T15:46:46.520Z,426.00
2022-09-04T15:47:46.396Z,425.00
2022-09-04T15:48:46.376Z,424.00
2022-09-04T15:49:46.363Z,425.00
2022-09-04T15:50:46.394Z,424.00
2022-09-04T15:51:46.424Z,425.00
2022-09-04T15:52:46.333Z,423.00
2022-09-04T15:53:46.723Z,422.00
2022-09-04T15:54:46.327Z,420.00
2022-09-04T15:55:46.294Z,421.00
2022-09-04T15:56:46.265Z,418.00
2022-09-04T15:57:46.243Z,419.00
2022-09-04T15:58:46.222Z,421.00
2022-09-04T15:59:46.226Z,421.00
2022-09-04T16:00:46.214Z,421.00
2022-09-04T16:01:46.255Z,421.00
2022-09-04T16:02:46.226Z,422.00
2022-09-04T16:03:46.163Z,422.00
2022-09-04T16:04:46.173Z,424.00
2022-09-04T16:05:46.133Z,425.00
2022-09-04T16:06:46.121Z,423.00
2022-09-04T16:07:46.120Z,424.00
2022-09-04T16:08:46.120Z,422.00
2022-09-04T16:09:46.141Z,421.00
2022-09-04T16:10:46.074Z,420.00
2022-09-04T16:11:46.043Z,423.00
2022-09-04T16:12:46.040Z,421.00
2022-09-04T16:13:46.085Z,420.00
2022-09-04T16:14:46.048Z,419.00
2022-09-04T16:15:46.033Z,420.00
2022-09-04T16:16:46.020Z,422.00
2022-09-04T16:17:46.005Z,423.00
2022-09-04T16:18:45.972Z,423.00
2022-09-04T16:19:45.958Z,423.00
2022-09-04T16:20:45.989Z,424.00
2022-09-04T16:21:45.950Z,423.00
2022-09-04T16:22:45.910Z,422.00
2022-09-04T16:23:45.930Z,420.00
2022-09-04T16:24:45.921Z,419.00
2022-09-04T16:25:45.960Z,419.00
2022-09-04T16:26:45.880Z,417.00
2022-09-04T16:27:45.859Z,415.00
2022-09-04T16:28:45.849Z,417.00
2022-09-04T16:29:45.838Z,419.00
2022-09-04T16:30:45.836Z,419.00
2022-09-04T16:31:45.789Z,419.00
2022-09-04T16:32:45.768Z,417.00
2022-09-04T16:33:45.757Z,417.00
2022-09-04T16:34:45.751Z,415.00
2022-09-04T16:35:45.799Z,416.00
2022-09-04T16:36:45.781Z,416.00
2022-09-04T16:37:45.738Z,413.00
2022-09-04T16:38:45.730Z,416.00
2022-09-04T16:39:45.787Z,419.00
2022-09-04T16:40:45.688Z,418.00
2022-09-04T16:41:45.671Z,414.00
2022-09-04T16:42:45.690Z,414.00
2022-09-04T16:43:45.656Z,412.00
2022-09-04T16:44:45.646Z,411.00
2022-09-04T16:45:45.640Z,412.00
2022-09-04T16:46:48.259Z,413.00
2022-09-04T16:47:45.584Z,415.00
2022-09-04T16:48:45.758Z,413.00
2022-09-04T16:49:46.810Z,413.00
2022-09-04T16:50:45.639Z,415.00
2022-09-04T16:51:45.553Z,416.00
2022-09-04T16:52:45.541Z,419.00
2022-09-04T16:53:45.506Z,421.00
2022-09-04T16:54:45.517Z,419.00
2022-09-04T16:55:45.537Z,419.00
2022-09-04T16:56:45.456Z,419.00
2022-09-04T16:57:45.455Z,419.00
2022-09-04T16:58:45.436Z,420.00
2022-09-04T16:59:46.167Z,420.00
2022-09-04T17:00:45.505Z,420.00
2022-09-04T17:01:45.508Z,420.00
2022-09-04T17:02:45.524Z,420.00
2022-09-04T17:03:45.382Z,418.00
2022-09-04T17:04:45.367Z,417.00
2022-09-04T17:05:45.395Z,417.00
2022-09-04T17:06:45.354Z,416.00
2022-09-04T17:07:45.363Z,415.00
2022-09-04T17:08:45.347Z,416.00
2022-09-04T17:09:45.304Z,416.00
2022-09-04T17:10:45.303Z,417.00
2022-09-04T17:11:45.324Z,416.00
2022-09-04T17:12:46.283Z,414.00
2022-09-04T17:13:45.257Z,413.00
2022-09-04T17:14:45.261Z,414.00
2022-09-04T17:15:53.644Z,416.00
2022-09-04T17:16:46.184Z,417.00
2022-09-04T17:17:45.243Z,417.00
2022-09-04T17:18:45.163Z,416.00
2022-09-04T17:19:45.173Z,417.00
2022-09-04T17:22:54.139Z,419.00
2022-09-04T17:25:57.362Z,418.00
2022-09-04T17:28:19.036Z,420.00
2022-09-04T17:28:54.109Z,420.00
2022-09-04T17:28:57.575Z,424.00
2022-09-04T17:28:58.917Z,423.00
2022-09-04T17:29:07.542Z,422.00
2022-09-04T17:29:08.060Z,425.00
2022-09-04T17:29:14.771Z,423.00
2022-09-04T17:29:47.713Z,420.00
2022-09-04T17:30:45.103Z,420.00
2022-09-04T17:31:45.664Z,418.00
2022-09-04T17:36:34.877Z,418.00
2022-09-04T17:38:40.056Z,422.00
2022-09-04T17:40:26.384Z,418.00
2022-09-04T17:40:36.992Z,414.00
2022-09-04T17:40:48.035Z,414.00
2022-09-04T17:40:51.771Z,416.00
2022-09-04T17:40:55.608Z,415.00
2022-09-04T17:40:57.300Z,414.00
2022-09-04T17:41:38.039Z,415.00
2022-09-04T17:41:59.441Z,414.00
2022-09-04T17:43:15.659Z,413.00
2022-09-04T17:43:45.848Z,414.00
2022-09-04T17:44:44.838Z,414.00
2022-09-04T17:45:46.019Z,416.00
2022-09-04T17:46:44.798Z,418.00
2022-09-04T17:47:44.776Z,419.00
2022-09-04T17:48:44.814Z,422.00
2022-09-04T17:49:44.758Z,424.00
2022-09-04T17:50:44.785Z,425.00
2022-09-04T17:51:44.707Z,427.00
2022-09-04T17:52:44.706Z,426.00
2022-09-04T17:53:44.727Z,423.00
2022-09-04T17:54:46.761Z,418.00
2022-09-04T17:55:47.681Z,417.00
2022-09-04T17:56:44.664Z,417.00
2022-09-04T17:57:44.666Z,417.00
2022-09-04T17:58:44.656Z,417.00
2022-09-04T17:59:45.831Z,417.00
2022-09-04T18:00:44.618Z,419.00
2022-09-04T18:01:44.661Z,422.00
2022-09-04T18:02:44.661Z,421.00
2022-09-04T18:04:02.793Z,419.00
2022-09-04T18:04:45.625Z,418.00
2022-09-04T18:05:51.513Z,421.00
2022-09-04T18:06:45.527Z,420.00
2022-09-04T18:08:07.712Z,420.00
2022-09-04T18:08:51.367Z,420.00
2022-09-04T18:09:45.476Z,419.00
2022-09-04T18:10:44.482Z,420.00
2022-09-04T18:11:44.445Z,419.00
2022-09-04T18:12:45.454Z,419.00
2022-09-04T18:13:44.417Z,420.00
2022-09-04T18:14:44.393Z,420.00
2022-09-04T18:15:44.434Z,421.00
2022-09-04T18:16:47.732Z,423.00
2022-09-04T18:17:45.364Z,423.00
2022-09-04T18:18:44.371Z,424.00
2022-09-04T18:19:44.354Z,423.00
2022-09-04T18:20:44.350Z,426.00
2022-09-04T18:21:44.302Z,427.00
2022-09-04T18:22:44.305Z,426.00
2022-09-04T18:23:44.313Z,428.00
2022-09-04T18:24:45.263Z,428.00
2022-09-04T18:25:44.252Z,427.00
2022-09-04T18:26:44.235Z,427.00
2022-09-04T18:27:44.241Z,428.00
2022-09-04T18:28:47.393Z,429.00
2022-09-04T18:31:05.895Z,428.00
2022-09-04T18:37:05.851Z,426.00
2022-09-04T18:37:06.586Z,424.00
2022-09-04T18:37:07.721Z,425.00
2022-09-04T18:37:19.199Z,423.00
2022-09-04T18:37:25.489Z,422.00
2022-09-04T18:37:26.559Z,425.00
2022-09-04T18:37:27.096Z,426.00
2022-09-04T18:37:47.441Z,428.00
2022-09-04T18:38:44.231Z,426.00
2022-09-04T18:39:44.157Z,425.00
2022-09-04T18:44:00.855Z,419.00
2022-09-04T18:47:17.378Z,420.00
2022-09-04T18:49:03.050Z,418.00
2022-09-04T18:50:22.758Z,420.00
2022-09-04T18:50:25.321Z,418.00
2022-09-04T18:50:31.684Z,417.00
2022-09-04T18:50:33.352Z,418.00
2022-09-04T18:50:37.886Z,415.00
2022-09-04T18:50:43.481Z,418.00
2022-09-04T18:50:47.145Z,417.00
2022-09-04T18:51:43.998Z,417.00
2022-09-04T18:52:43.918Z,418.00
2022-09-04T18:53:43.929Z,418.00
2022-09-04T18:54:43.879Z,422.00
2022-09-04T18:55:43.857Z,422.00
2022-09-04T18:56:43.848Z,421.00
2022-09-04T18:57:48.601Z,416.00
2022-09-04T18:58:44.804Z,417.00
2022-09-04T18:59:43.816Z,415.00
2022-09-04T19:00:43.791Z,417.00
2022-09-04T19:01:43.893Z,417.00
2022-09-04T19:02:43.877Z,417.00
2022-09-04T19:03:44.778Z,417.00
2022-09-04T19:04:43.758Z,416.00
2022-09-04T19:05:44.792Z,417.00
2022-09-04T19:06:43.697Z,418.00
2022-09-04T19:07:43.726Z,420.00
2022-09-04T19:08:43.716Z,420.00
2022-09-04T19:09:48.690Z,422.00
2022-09-04T19:10:44.668Z,423.00
2022-09-04T19:11:43.824Z,423.00
2022-09-04T19:12:47.668Z,424.00
2022-09-04T19:13:43.604Z,424.00
2022-09-04T19:14:43.615Z,424.00
